Latest Coastal Weather Observations for Flinders Island Airport

IDV60701

Issued at 2:11 pm EST Thursday 19 September 2019 (issued every 10 minutes, with the page automatically refreshed every 10 minutes)

About coastal observations | Map of coastal stations | Coastal observations for VIC | Marine services | Other Formats
Station Details ID: 099005 Name: FLINDERS ISLAND AIRPORT Lat: -40.09 Lon: 148.00 Height: 9.0 m
Data from the previous 72 hours. | See also: Recent months at Flinders Island Airport
Date/Time
EST
Wind Sea
Height
m
Swell Vis
km
Cloud Weather Temp
°C
Press
hPa
Rain since
9am
mm
Dir  Spd
kts
Gust
kts
Height
m
Period
s
Dir
19/02:00pm NNE 17 22 - - - - 10 Partly cloudy - 18.1 1022.4 0.0
19/01:36pm NE 19 24 - - - - 10 Partly cloudy - 18.5 1022.7 0.0
19/01:30pm NE 18 24 - - - - 10 Partly cloudy - 18.4 1022.7 0.0
19/01:04pm NE 16 23 - - - - 10 Partly cloudy - 18.2 1022.7 0.0
19/01:00pm NE 17 23 - - - - 10 Partly cloudy - 17.9 1022.8 0.0
19/12:30pm NE 16 23 - - - - 10 - - 18.8 1023.3 0.0
19/12:00pm NE 19 22 - - - - 10 - - 18.1 1023.9 0.0
19/11:30am NE 18 24 - - - - 10 - - 17.9 1024.2 0.0
19/11:00am NE 17 21 - - - - 10 - - 17.4 1024.5 0.0
19/10:30am NE 17 24 - - - - 10 - - 17.2 1024.8 0.0
19/10:00am NE 19 25 - - - - 10 - - 16.6 1025.0 0.0
19/09:30am NNE 20 25 - - - - 10 Partly cloudy - 16.3 1025.2 0.0
19/09:27am NE 19 25 - - - - 10 Partly cloudy - 16.0 1025.2 0.0
19/09:00am NE 17 22 - - - - 10 Partly cloudy - 15.7 1025.3 0.0
19/08:48am NE 17 22 - - - - 10 Partly cloudy - 15.8 1025.4 0.0
19/08:30am NE 17 21 - - - - 10 Partly cloudy - 15.7 1025.4 0.0
19/08:00am NE 18 22 - - - - 10 Partly cloudy - 14.9 1025.3 0.0
19/07:54am NE 19 25 - - - - 10 Partly cloudy - 14.7 1025.3 0.0
19/07:30am ENE 11 17 - - - - 10 Partly cloudy - 14.5 1025.4 0.0
19/07:08am E 9 14 - - - - 10 Partly cloudy - 13.3 1025.5 0.0
19/07:00am ENE 10 14 - - - - 10 Partly cloudy - 12.9 1025.6 0.0
19/06:30am NE 13 16 - - - - 10 - - 11.5 1025.7 0.0
19/06:00am NE 13 16 - - - - 10 - - 11.6 1025.4 0.0
19/05:30am ENE 9 11 - - - - 10 - - 11.1 1025.4 0.0
19/05:00am ENE 10 14 - - - - 10 - - 10.2 1025.3 0.0
19/04:30am NE 10 14 - - - - 10 - - 11.0 1025.4 0.0
19/04:00am ENE 9 11 - - - - 10 - - 9.1 1025.4 0.0
19/03:30am ENE 10 14 - - - - 10 - - 8.8 1025.4 0.0
19/03:00am NE 10 11 - - - - 10 - - 8.7 1025.7 0.0
19/02:30am ENE 8 11 - - - - 10 - - 8.7 1025.9 0.0
19/02:00am NE 11 14 - - - - 10 - - 11.0 1026.2 0.0
19/01:30am NNE 11 14 - - - - 10 - - 11.9 1026.3 0.0
19/01:00am NNE 10 16 - - - - 10 - - 12.3 1026.6 0.0
19/12:30am NE 14 18 - - - - 10 - - 12.3 1026.7 0.0
19/12:00am NE 15 20 - - - - 10 - - 12.1 1026.9 0.0
 
Date/Time
EST
Wind Sea
Height
m
Swell Vis
km
Cloud Weather Temp
°C
Press
hPa
Rain since
9am
mm
Dir  Spd
kts
Gust
kts
Height
m
Period
s
Dir
18/11:30pm NNE 13 17 - - - - 10 - - 12.0 1027.1 0.0
18/11:00pm NNE 14 17 - - - - 10 - - 12.4 1027.1 0.0
18/10:30pm NE 12 17 - - - - 10 - - 12.5 1027.4 0.0
18/10:00pm NNE 13 16 - - - - 10 - - 12.7 1027.5 0.0
18/09:30pm NNE 14 19 - - - - 10 - - 12.6 1027.7 0.0
18/09:00pm NNE 12 16 - - - - 10 - - 12.7 1027.6 0.0
18/08:30pm NNE 12 16 - - - - 10 - - 12.8 1027.5 0.0
18/08:00pm ENE 13 17 - - - - 10 - - 11.5 1027.2 0.0
18/07:30pm ENE 11 16 - - - - 10 - - 10.8 1027.2 0.0
18/07:00pm ENE 10 15 - - - - 10 - - 11.5 1027.1 0.0
18/06:30pm ENE 10 16 - - - - 10 - - 11.2 1026.9 0.0
18/06:00pm ENE 10 15 - - - - 10 - - 11.3 1027.1 0.0
18/05:30pm NE 12 16 - - - - 10 - - 12.8 1027.1 0.0
18/05:00pm NNE 13 18 - - - - 10 - - 13.3 1027.1 0.0
18/04:30pm NNE 12 16 - - - - 10 Partly cloudy - 13.8 1027.1 0.0
18/04:00pm NNE 14 18 - - - - 10 - - 14.2 1027.2 0.0
18/03:30pm NNE 13 17 - - - - 10 - - 14.3 1027.5 0.0
18/03:00pm NNE 12 17 - - - - 10 - - 14.8 1027.5 0.0
18/02:30pm NNE 15 20 - - - - 10 - - 14.7 1027.7 0.0
18/02:00pm NNE 13 17 - - - - 10 Partly cloudy - 14.8 1027.8 0.0
18/01:30pm NE 15 19 - - - - 10 Partly cloudy - 14.1 1028.0 0.0
18/01:00pm NE 15 20 - - - - 10 Partly cloudy - 14.7 1028.1 0.0
18/12:30pm NNE 13 19 - - - - 10 Cloudy - 14.0 1028.3 0.0
18/12:00pm NNE 15 18 - - - - 10 Mostly cloudy - 14.9 1028.5 0.0
18/11:30am NNE 14 19 - - - - 10 Partly cloudy - 14.2 1028.9 0.0
18/11:00am NNE 14 21 - - - - 10 Partly cloudy - 13.7 1029.1 0.0
18/10:30am N 14 19 - - - - 10 Partly cloudy - 13.7 1029.4 0.0
18/10:00am NNE 13 19 - - - - 10 Partly cloudy - 13.6 1029.6 0.0
18/09:30am N 9 14 - - - - 10 Partly cloudy - 13.1 1029.8 0.0
18/09:00am N 10 15 - - - - 10 Partly cloudy - 13.2 1029.9 0.0
18/08:30am S 1 3 - - - - 10 Cloudy - 12.4 1029.9 0.0
18/08:00am CALM 0 0 - - - - 10 Cloudy - 9.6 1029.8 0.0
18/07:30am ENE 4 5 - - - - 10 Cloudy - 7.4 1029.5 0.0
18/07:00am ENE 5 7 - - - - 10 Partly cloudy - 6.3 1029.4 0.0
18/06:30am ENE 5 6 - - - - 10 Cloudy - 5.5 1029.4 0.0
18/06:00am ENE 5 6 - - - - 10 Mostly cloudy - 4.8 1029.4 0.0
18/05:30am ENE 5 5 - - - - 10 Partly cloudy - 4.7 1029.3 0.0
18/05:00am ENE 5 5 - - - - 10 Partly cloudy - 4.3 1029.1 0.0
18/04:30am ENE 5 6 - - - - 10 Partly cloudy - 4.0 1029.2 0.0
18/04:00am ENE 5 7 - - - - 10 Cloudy - 4.2 1029.2 0.0
18/03:30am ENE 5 6 - - - - 10 Partly cloudy - 3.9 1029.2 0.0
18/03:00am ENE 5 6 - - - - 10 Cloudy - 3.8 1029.4 0.0
18/02:30am ENE 6 7 - - - - 10 Cloudy - 3.0 1029.6 0.0
18/02:00am ENE 7 8 - - - - 10 Cloudy - 2.2 1029.9 0.0
18/01:30am ENE 7 8 - - - - 10 Partly cloudy - 1.4 1030.2 0.0
18/01:00am ENE 7 8 - - - - 10 - - 0.7 1030.2 0.0
18/12:30am ENE 6 7 - - - - 10 Partly cloudy - 1.6 1030.2 0.0
18/12:00am ENE 8 10 - - - - 10 Partly cloudy - 1.0 1030.3 0.0
 
Date/Time
EST
Wind Sea
Height
m
Swell Vis
km
Cloud Weather Temp
°C
Press
hPa
Rain since
9am
mm
Dir  Spd
kts
Gust
kts
Height
m
Period
s
Dir
17/11:30pm ENE 7 8 - - - - 10 Partly cloudy - 1.1 1030.4 0.0
17/11:00pm ENE 7 9 - - - - 10 - - 0.9 1030.4 0.0
17/10:30pm ENE 7 8 - - - - 10 - - 1.0 1030.4 0.0
17/10:00pm ENE 7 8 - - - - 10 - - 1.3 1030.4 0.0
17/09:30pm ENE 7 7 - - - - 10 - - 1.7 1030.3 0.0
17/09:00pm ENE 7 7 - - - - 10 - - 2.0 1030.3 0.0
17/08:30pm ENE 7 7 - - - - 10 - - 2.3 1030.1 0.0
17/08:00pm ENE 7 9 - - - - 10 Partly cloudy - 3.0 1030.0 0.0
17/07:30pm ENE 6 7 - - - - 10 - - 3.4 1030.0 0.0
17/07:00pm NNE 3 4 - - - - 10 - - 3.7 1029.5 0.0
17/06:30pm CALM 0 0 - - - - 10 - - 7.1 1029.2 0.0
17/06:00pm W 5 6 - - - - 10 - - 9.0 1029.0 0.0
17/05:30pm WSW 5 7 - - - - 10 - - 10.2 1028.7 0.0
17/05:00pm WSW 7 8 - - - - 10 - - 10.9 1028.8 0.0
17/04:30pm WSW 6 7 - - - - 10 - - 11.0 1028.5 0.0
17/04:00pm WSW 7 9 - - - - 10 - - 11.2 1028.4 0.0
17/03:30pm WSW 7 8 - - - - 10 - - 11.6 1028.4 0.0
17/03:00pm WSW 7 9 - - - - 10 - - 11.3 1028.5 0.0
17/02:30pm SW 8 9 - - - - 10 Partly cloudy - 11.6 1028.4 0.0
17/02:00pm SW 8 9 - - - - 10 - - 11.9 1028.4 0.0
17/01:30pm SW 7 9 - - - - 10 - - 11.5 1028.4 0.0
17/01:00pm SW 7 9 - - - - 10 Partly cloudy - 11.4 1028.5 0.0
17/12:30pm SW 7 9 - - - - 10 Partly cloudy - 11.5 1028.7 0.0
17/12:00pm SW 8 9 - - - - 10 Mostly cloudy - 11.7 1028.9 0.0
17/11:30am SW 8 9 - - - - 10 - - 11.4 1029.0 0.0
17/11:00am SW 8 10 - - - - 10 - - 11.3 1028.9 0.0
17/10:30am SW 7 9 - - - - 10 - - 11.3 1028.9 0.0
17/10:00am SW 6 8 - - - - 10 Partly cloudy - 11.2 1028.8 0.0
17/09:30am SW 6 7 - - - - 10 - - 10.6 1028.7 0.0
17/09:00am SSW 4 6 - - - - 10 - - 11.0 1028.6 0.0
17/08:30am ENE 1 4 - - - - 10 - - 9.9 1028.4 0.0
17/08:00am NE 3 4 - - - - 10 - - 6.6 1028.1 0.0
17/07:30am ENE 4 6 - - - - 10 - - 3.4 1027.8 0.0
17/07:00am ENE 6 7 - - - - 10 - - 0.8 1027.5 0.0
17/06:30am ENE 6 7 - - - - 10 - - -0.9 1027.1 0.0
17/06:00am ENE 7 7 - - - - 10 - - -0.8 1026.7 0.0
17/05:30am ENE 7 8 - - - - 10 - - -0.9 1026.4 0.0
17/05:00am ENE 6 7 - - - - 10 - - -0.8 1026.1 0.0
17/04:30am ENE 7 8 - - - - 10 - - -0.5 1026.0 0.0
17/04:00am ENE 5 5 - - - - 10 - - 0.3 1025.9 0.0
17/03:30am ENE 6 7 - - - - 10 - - 0.2 1025.6 0.0
17/03:00am ENE 7 8 - - - - 10 - - 0.1 1025.5 0.0
17/02:30am ENE 6 6 - - - - 10 - - 0.6 1025.6 0.0
17/02:00am NE 4 5 - - - - 10 - - 1.4 1025.6 0.0
17/01:30am SW 3 4 - - - - 10 - - 3.8 1025.6 0.0
17/01:00am ENE 4 5 - - - - 10 - - 5.3 1025.5 0.0
17/12:30am NE 4 5 - - - - 10 - - 5.3 1025.0 0.0
17/12:00am E 5 7 - - - - 10 - - 6.2 1024.8 0.0
 
Date/Time
EST
Wind Sea
Height
m
Swell Vis
km
Cloud Weather Temp
°C
Press
hPa
Rain since
9am
mm
Dir  Spd
kts
Gust
kts
Height
m
Period
s
Dir
16/11:30pm SE 6 8 - - - - 10 - - 5.8 1024.8 0.0
16/11:00pm SE 5 7 - - - - 10 - - 7.1 1024.4 0.0
16/10:30pm E 5 7 - - - - 10 - - 6.0 1024.4 0.0
16/10:00pm ESE 5 9 - - - - 10 - - 6.8 1024.2 0.0
16/09:30pm E 6 8 - - - - 10 - - 5.0 1023.9 0.0
16/09:00pm S 7 10 - - - - 10 - - 6.7 1023.3 0.0
16/08:30pm SSW 12 14 - - - - 10 Partly cloudy - 10.3 1022.8 0.0
16/08:00pm SW 14 18 - - - - 10 - - 10.3 1022.4 0.0
16/07:30pm SW 16 19 - - - - 10 Partly cloudy - 10.2 1022.0 0.0
16/07:00pm SW 15 19 - - - - 10 - - 9.9 1021.7 0.0
16/06:30pm WSW 15 19 - - - - 10 - - 10.0 1021.3 0.0
16/06:00pm SW 15 18 - - - - 10 - - 9.9 1021.0 0.0
16/05:30pm WSW 17 20 - - - - 10 - - 10.3 1020.5 0.0
16/05:00pm WSW 18 22 - - - - 10 - - 10.6 1020.1 0.0
16/04:30pm WSW 19 25 - - - - 10 - - 11.0 1019.4 0.0
16/04:00pm WSW 19 23 - - - - 10 - - 11.2 1018.7 0.0
16/03:30pm WSW 21 27 - - - - 10 - - 11.3 1018.3 0.0
16/03:00pm WSW 22 26 - - - - 10 - - 11.1 1018.0 0.0
16/02:30pm WSW 23 28 - - - - 10 - - 11.4 1017.6 0.0

Other formats

Comma delimited format used in spreadsheet applications
http://www.bom.gov.au/fwo/IDV60701/IDV60701.94980.axf

JavaScript Object Notation format (JSON) in row-major order
http://www.bom.gov.au/fwo/IDV60701/IDV60701.94980.json

Data quality

Most of these data are generated automatically and are frequently updated. Quality checks on data are not normally performed. It is possible for incorrect values to appear. Refer to information at About Latest Weather Observations and please check the disclaimer before using these data.